Time;durP1;ratioP1;P1;durP2;ratioP2;P2;SDS_P1;SDS_P2;PMS_P1;PMS_P2;Temp;Humidity;BMP_temperature;BMP_pressure;BME280_temperature;BME280_humidity;BME280_pressure;Samples;Min_cycle;Max_cycle;Signal;HPM_P1;HPM_P2
2022/03/15 00:00:56;;;;;;;6.15;2.00;;;;;;;3.56;100.00;97697.69;5032233;28;20152;-71
2022/03/15 00:03:22;;;;;;;5.68;1.50;;;;;;;3.53;100.00;97689.28;5031548;28;20089;-74
2022/03/15 00:05:49;;;;;;;5.38;1.50;;;;;;;3.52;100.00;97693.78;5029538;28;20491;-73
2022/03/15 00:08:15;;;;;;;5.15;1.95;;;;;;;3.45;100.00;97694.63;5031820;28;20984;-73
2022/03/15 00:10:41;;;;;;;7.85;1.85;;;;;;;3.40;100.00;97697.78;5030426;28;20045;-73
2022/03/15 00:13:07;;;;;;;7.80;1.70;;;;;;;3.40;100.00;97695.16;5030976;28;20033;-73
2022/03/15 00:15:35;;;;;;;4.45;1.70;;;;;;;3.38;100.00;97693.69;5031841;28;20185;-74
2022/03/15 00:18:01;;;;;;;5.80;1.60;;;;;;;3.30;100.00;97692.72;5030439;28;20473;-71
2022/03/15 00:20:27;;;;;;;7.07;2.33;;;;;;;3.30;100.00;97692.72;5029805;28;20210;-74
2022/03/15 00:22:55;;;;;;;5.72;1.90;;;;;;;3.22;100.00;97695.41;5033576;28;20086;-73
2022/03/15 00:25:21;;;;;;;7.10;1.90;;;;;;;3.24;100.00;97695.22;5031571;28;20052;-73
2022/03/15 00:27:51;;;;;;;4.80;1.70;;;;;;;3.31;100.00;97696.19;5030313;28;20095;-72
2022/03/15 00:30:17;;;;;;;8.23;1.95;;;;;;;3.23;100.00;97690.94;5033900;28;20091;-72
2022/03/15 00:32:44;;;;;;;6.50;2.33;;;;;;;3.25;100.00;97683.63;5043202;28;20120;-73
2022/03/15 00:35:17;;;;;;;5.88;1.77;;;;;;;3.28;100.00;97680.66;5045605;28;20106;-73
2022/03/15 00:37:44;;;;;;;6.45;1.85;;;;;;;3.27;100.00;97676.38;5011090;28;20034;-74
2022/03/15 00:40:10;;;;;;;5.68;1.80;;;;;;;3.15;100.00;97675.09;5013700;28;20053;-71
2022/03/15 00:42:35;;;;;;;8.68;2.00;;;;;;;3.17;100.00;97675.75;5016752;28;20077;-72
2022/03/15 00:45:04;;;;;;;9.57;1.80;;;;;;;3.26;100.00;97682.63;5012014;28;20049;-71
2022/03/15 00:47:30;;;;;;;8.65;2.35;;;;;;;3.21;100.00;97679.72;5030969;28;20037;-71
2022/03/15 00:49:56;;;;;;;6.05;2.10;;;;;;;3.23;100.00;97680.34;5013104;28;20132;-71
2022/03/15 00:52:22;;;;;;;7.22;1.67;;;;;;;3.21;100.00;97679.72;5012305;28;20082;-73
2022/03/15 00:54:47;;;;;;;5.50;2.08;;;;;;;3.14;100.00;97671.63;5011211;28;20038;-71
2022/03/15 00:57:13;;;;;;;4.55;1.88;;;;;;;3.11;100.00;97676.41;5010590;28;20037;-72
2022/03/15 00:59:39;;;;;;;4.75;1.23;;;;;;;3.08;100.00;97670.47;5012826;28;20465;-71
2022/03/15 01:02:05;;;;;;;5.00;1.70;;;;;;;3.04;100.00;97669.19;5012039;28;20680;-71
2022/03/15 01:04:31;;;;;;;5.88;1.70;;;;;;;3.06;100.00;97675.13;5015191;28;20053;-72
2022/03/15 01:06:56;;;;;;;3.97;1.50;;;;;;;3.04;100.00;97679.78;5011760;28;20539;-71
2022/03/15 01:09:22;;;;;;;7.50;2.08;;;;;;;3.03;100.00;97683.38;5012378;28;20068;-73
2022/03/15 01:11:49;;;;;;;6.00;1.65;;;;;;;3.01;100.00;97668.69;5030581;28;20469;-73
2022/03/15 01:14:15;;;;;;;5.10;1.70;;;;;;;3.01;100.00;97680.09;5012941;28;20365;-72
2022/03/15 01:16:41;;;;;;;6.40;1.60;;;;;;;3.01;100.00;97673.97;5012107;28;20048;-71
2022/03/15 01:19:07;;;;;;;3.08;1.58;;;;;;;3.02;100.00;97678.28;5010154;28;20496;-71
2022/03/15 01:21:35;;;;;;;4.35;1.58;;;;;;;3.09;100.00;97679.25;5013453;28;20451;-73
2022/03/15 01:24:01;;;;;;;11.77;1.20;;;;;;;3.08;100.00;97673.13;5011758;28;20050;-72
2022/03/15 01:26:26;;;;;;;8.35;1.52;;;;;;;3.10;100.00;97677.41;5030615;28;20042;-71
2022/03/15 01:28:52;;;;;;;5.38;1.33;;;;;;;3.08;100.00;97683.72;5044463;28;20456;-74
2022/03/15 01:31:18;;;;;;;6.18;1.38;;;;;;;3.15;100.00;97681.22;5010975;28;20558;-74
2022/03/15 01:33:46;;;;;;;10.10;1.83;;;;;;;3.13;100.00;97677.91;5011921;28;20037;-71
2022/03/15 01:36:11;;;;;;;5.55;1.20;;;;;;;3.08;100.00;97659.09;5010826;28;20069;-71
2022/03/15 01:38:37;;;;;;;6.00;1.80;;;;;;;3.06;100.00;97659.25;5009781;28;20396;-74
2022/03/15 01:41:03;;;;;;;6.75;1.60;;;;;;;2.99;100.00;97650.38;5013365;28;20052;-72
2022/03/15 01:43:28;;;;;;;5.20;1.40;;;;;;;3.01;100.00;97651.00;5015126;28;20451;-71
2022/03/15 01:45:55;;;;;;;9.75;1.67;;;;;;;3.04;100.00;97655.16;5013754;28;20034;-73
2022/03/15 01:48:20;;;;;;;6.10;1.30;;;;;;;3.01;100.00;97644.91;5009083;28;20052;-72
2022/03/15 01:50:46;;;;;;;3.40;1.23;;;;;;;3.01;100.00;97648.38;5011128;28;20033;-74
2022/03/15 01:53:14;;;;;;;5.35;1.17;;;;;;;2.94;100.00;97647.41;5011329;28;20536;-75
2022/03/15 01:55:40;;;;;;;7.07;2.20;;;;;;;2.93;100.00;97643.09;5011090;28;20156;-71
2022/03/15 01:58:06;;;;;;;6.28;1.83;;;;;;;2.91;100.00;97631.06;5014916;28;20384;-71
2022/03/15 02:00:32;;;;;;;4.47;1.20;;;;;;;2.90;100.00;97637.34;5017218;28;20053;-71
2022/03/15 02:03:05;;;;;;;6.03;2.00;;;;;;;2.84;100.00;97625.63;5026960;28;20120;-71
2022/03/15 02:05:30;;;;;;;6.20;1.48;;;;;;;2.87;100.00;97624.47;5030252;28;20068;-71
2022/03/15 02:07:56;;;;;;;7.88;1.45;;;;;;;2.82;100.00;97632.91;5027968;28;20432;-75
2022/03/15 02:10:22;;;;;;;4.93;1.58;;;;;;;2.85;100.00;97635.22;5026828;28;20048;-72
2022/03/15 02:12:48;;;;;;;8.23;1.63;;;;;;;2.83;100.00;97628.47;5029220;28;20037;-72
2022/03/15 02:15:14;;;;;;;5.43;1.42;;;;;;;2.85;100.00;97635.22;5027373;28;20512;-73
2022/03/15 02:17:39;;;;;;;5.28;1.35;;;;;;;2.81;100.00;97638.38;5029461;28;20131;-71
2022/03/15 02:20:09;;;;;;;5.22;1.30;;;;;;;2.71;100.00;97634.09;5028485;28;20036;-72
2022/03/15 02:22:35;;;;;;;4.57;1.20;;;;;;;2.68;100.00;97636.28;5029455;28;20056;-70
2022/03/15 02:25:04;;;;;;;7.55;1.50;;;;;;;2.66;100.00;97630.34;5028474;28;20045;-72
2022/03/15 02:27:29;;;;;;;8.25;1.50;;;;;;;2.65;100.00;97626.88;5030164;28;20033;-72
2022/03/15 02:29:55;;;;;;;3.88;1.23;;;;;;;2.61;100.00;97630.84;5029685;28;20112;-71
2022/03/15 02:32:21;;;;;;;6.18;1.30;;;;;;;2.60;100.00;97633.66;5009799;28;20042;-74
2022/03/15 02:34:47;;;;;;;4.38;1.42;;;;;;;2.64;100.00;97634.94;5013509;28;20132;-71
2022/03/15 02:37:12;;;;;;;4.97;1.30;;;;;;;2.67;100.00;97619.59;5009739;28;20372;-71
2022/03/15 02:39:38;;;;;;;6.28;1.55;;;;;;;2.72;100.00;97621.69;5011565;28;20316;-74
2022/03/15 02:42:03;;;;;;;3.47;1.33;;;;;;;2.60;100.00;97617.78;5010418;28;20037;-74
2022/03/15 02:44:29;;;;;;;4.53;1.67;;;;;;;2.49;100.00;97611.88;5011605;28;20468;-71
2022/03/15 02:46:54;;;;;;;8.18;1.60;;;;;;;2.44;100.00;97618.66;5011062;28;20033;-71
2022/03/15 02:49:20;;;;;;;8.73;1.60;;;;;;;2.38;100.00;97614.03;5009659;28;20106;-74
2022/03/15 02:51:45;;;;;;;5.53;1.70;;;;;;;2.43;100.00;97620.47;5011235;28;20021;-71
2022/03/15 02:54:13;;;;;;;7.40;1.50;;;;;;;2.48;100.00;97609.38;5012274;28;20038;-71
2022/03/15 02:56:42;;;;;;;5.82;1.40;;;;;;;2.48;100.00;97606.75;5012560;28;20104;-74
2022/03/15 02:59:14;;;;;;;4.60;1.30;;;;;;;2.49;100.00;97590.75;5010680;28;20033;-74
2022/03/15 03:01:40;;;;;;;4.07;1.33;;;;;;;2.62;100.00;97598.13;5020696;28;20057;-72
2022/03/15 03:04:05;;;;;;;6.63;1.60;;;;;;;2.65;100.00;97587.22;5027708;28;20376;-71
2022/03/15 03:06:31;;;;;;;5.88;1.20;;;;;;;2.71;100.00;97598.91;5028851;28;20080;-71
2022/03/15 03:08:56;;;;;;;8.88;1.50;;;;;;;2.78;100.00;97600.69;5027999;28;20037;-71
2022/03/15 03:11:22;;;;;;;6.75;1.50;;;;;;;2.81;100.00;97601.38;5028484;28;20116;-73
2022/03/15 03:13:50;;;;;;;4.55;1.40;;;;;;;2.69;100.00;97591.16;5029117;28;20392;-71
2022/03/15 03:16:16;;;;;;;7.55;1.80;;;;;;;2.64;100.00;97597.94;5028492;28;20106;-74
2022/03/15 03:18:41;;;;;;;6.50;1.60;;;;;;;2.69;100.00;97598.28;5024752;28;20032;-74
2022/03/15 03:21:07;;;;;;;10.65;1.60;;;;;;;2.68;100.00;97596.63;5027505;28;20443;-71
2022/03/15 03:23:39;;;;;;;5.28;1.38;;;;;;;2.54;100.00;97587.56;5028711;28;20068;-70
2022/03/15 03:26:06;;;;;;;4.35;1.27;;;;;;;2.56;100.00;97590.03;5029033;28;20502;-73
2022/03/15 03:28:38;;;;;;;6.55;1.27;;;;;;;2.57;100.00;97597.81;5030550;28;20384;-70
2022/03/15 03:31:09;;;;;;;4.28;1.27;;;;;;;2.59;100.00;97585.25;5029901;28;20041;-71
2022/03/15 03:33:35;;;;;;;6.47;1.50;;;;;;;2.59;100.00;97581.78;5032651;28;20827;-70
2022/03/15 03:36:02;;;;;;;3.47;1.33;;;;;;;2.58;100.00;97594.19;5031840;28;20265;-74
2022/03/15 03:38:28;;;;;;;5.82;1.40;;;;;;;2.65;100.00;97594.34;5032035;28;20132;-71
2022/03/15 03:40:57;;;;;;;4.38;1.17;;;;;;;2.69;100.00;97590.34;5034132;28;20355;-72
2022/03/15 03:43:23;;;;;;;5.93;1.65;;;;;;;2.68;100.00;97588.69;5034209;28;20032;-71
2022/03/15 03:45:49;;;;;;;8.50;1.67;;;;;;;2.72;100.00;97582.91;5030775;28;20504;-74
2022/03/15 03:48:15;;;;;;;11.05;3.15;;;;;;;2.73;100.00;97581.09;5032388;28;20108;-73
2022/03/15 03:50:42;;;;;;;4.05;1.33;;;;;;;2.69;100.00;97580.59;5029588;28;20048;-71
2022/03/15 03:53:09;;;;;;;7.80;1.80;;;;;;;2.65;100.00;97579.28;5031995;28;20049;-71
2022/03/15 03:55:34;;;;;;;4.85;1.30;;;;;;;2.68;100.00;97572.84;5032411;28;20053;-71
2022/03/15 03:58:00;;;;;;;8.85;1.40;;;;;;;2.72;100.00;97572.34;5037865;28;20040;-70
2022/03/15 04:00:26;;;;;;;3.63;1.30;;;;;;;2.79;100.00;97569.81;5029816;28;20288;-71
2022/03/15 04:02:57;;;;;;;4.97;1.40;;;;;;;2.81;100.00;97570.47;5031319;28;20040;-71
2022/03/15 04:05:23;;;;;;;4.70;1.17;;;;;;;2.78;100.00;97563.69;5028861;28;20095;-71
2022/03/15 04:07:49;;;;;;;6.90;1.58;;;;;;;2.92;100.00;97567.44;5029802;28;20037;-70
2022/03/15 04:10:16;;;;;;;2.95;1.30;;;;;;;3.00;100.00;97571.84;5030817;28;20597;-72
2022/03/15 04:12:41;;;;;;;5.28;1.38;;;;;;;3.03;100.00;97561.75;5031582;28;20032;-72
2022/03/15 04:15:07;;;;;;;4.85;1.13;;;;;;;3.03;100.00;97561.75;5030453;28;20065;-71
2022/03/15 04:17:34;;;;;;;3.88;1.52;;;;;;;3.12;100.00;97567.84;5031490;28;20037;-71
2022/03/15 04:19:59;;;;;;;6.05;1.48;;;;;;;3.07;100.00;97560.41;5030838;28;20127;-74
2022/03/15 04:22:26;;;;;;;4.32;1.05;;;;;;;3.08;100.00;97567.34;5031698;28;20041;-71
2022/03/15 04:24:52;;;;;;;7.32;1.60;;;;;;;3.10;100.00;97571.63;5032661;28;20107;-74
2022/03/15 04:27:18;;;;;;;3.90;1.13;;;;;;;3.10;100.00;97574.28;5031887;28;20045;-71
2022/03/15 04:29:44;;;;;;;4.97;1.30;;;;;;;3.06;100.00;97565.88;5029561;28;20214;-71
2022/03/15 04:32:09;;;;;;;5.60;1.50;;;;;;;3.11;100.00;97576.72;5031522;28;20032;-71
2022/03/15 04:34:35;;;;;;;5.00;1.65;;;;;;;3.11;100.00;97567.97;5029436;28;20041;-71
2022/03/15 04:37:03;;;;;;;5.70;1.50;;;;;;;3.15;100.00;97572.75;5029669;28;20323;-72
2022/03/15 04:39:29;;;;;;;3.53;1.38;;;;;;;3.15;100.00;97569.28;5029924;28;20048;-71
2022/03/15 04:41:55;;;;;;;7.15;1.35;;;;;;;3.15;100.00;97566.66;5032737;28;20487;-73
2022/03/15 04:44:21;;;;;;;5.43;1.45;;;;;;;3.14;100.00;97563.19;5030888;28;21206;-71
2022/03/15 04:46:46;;;;;;;3.40;1.27;;;;;;;3.14;100.00;97560.53;5031406;28;20044;-71
2022/03/15 04:49:12;;;;;;;10.38;1.55;;;;;;;3.16;100.00;97555.06;5029847;28;20423;-74
2022/03/15 04:51:38;;;;;;;5.20;1.35;;;;;;;3.13;100.00;97558.06;5030933;28;20081;-71
2022/03/15 04:54:04;;;;;;;5.68;1.70;;;;;;;3.10;100.00;97555.75;5029663;28;20041;-73
2022/03/15 04:56:30;;;;;;;2.50;1.10;;;;;;;3.15;100.00;97553.41;5030480;28;20389;-75
2022/03/15 04:58:55;;;;;;;6.35;1.50;;;;;;;3.20;100.00;97549.25;5031309;28;20045;-71
2022/03/15 05:01:21;;;;;;;3.15;1.23;;;;;;;3.17;100.00;97546.94;5029160;28;20049;-72
2022/03/15 05:03:46;;;;;;;3.60;1.17;;;;;;;3.15;100.00;97550.78;5029809;28;20073;-74
2022/03/15 05:06:12;;;;;;;3.70;1.50;;;;;;;3.24;100.00;97550.53;5028748;28;20037;-73
2022/03/15 05:08:37;;;;;;;5.55;1.48;;;;;;;3.35;100.00;97533.47;5031178;28;20045;-73
2022/03/15 05:11:06;;;;;;;5.68;1.42;;;;;;;3.42;100.00;97533.53;5030840;28;20029;-71
2022/03/15 05:13:35;;;;;;;5.25;1.70;;;;;;;3.46;100.00;97530.38;5030850;28;20049;-74
2022/03/15 05:16:01;;;;;;;5.15;1.40;;;;;;;3.53;100.00;97531.31;5030999;28;20041;-74
2022/03/15 05:18:27;;;;;;;3.08;1.38;;;;;;;3.56;100.00;97541.53;5029324;28;20145;-74
2022/03/15 05:20:53;;;;;;;6.18;1.63;;;;;;;3.58;100.00;97534.25;5032497;28;20059;-72
2022/03/15 05:23:18;;;;;;;4.07;1.40;;;;;;;3.60;100.00;97526.13;5029813;28;20041;-72
2022/03/15 05:25:44;;;;;;;3.75;1.17;;;;;;;3.59;100.00;97521.84;5030026;28;20269;-72
2022/03/15 05:28:09;;;;;;;5.03;1.25;;;;;;;3.58;100.00;97533.41;5031132;28;20104;-72
2022/03/15 05:30:36;;;;;;;7.00;1.40;;;;;;;3.57;100.00;97531.78;5031265;28;20057;-71
2022/03/15 05:33:01;;;;;;;5.22;1.40;;;;;;;3.58;100.00;97528.97;5029029;28;20094;-74
2022/03/15 05:35:27;;;;;;;7.20;1.60;;;;;;;3.59;100.00;97525.31;5028521;28;20422;-74
2022/03/15 05:37:53;;;;;;;5.93;2.00;;;;;;;3.63;100.00;97518.66;5029626;28;20103;-71
2022/03/15 05:40:20;;;;;;;7.78;2.45;;;;;;;3.67;100.00;97521.78;5030419;28;20061;-73
2022/03/15 05:42:46;;;;;;;6.93;2.00;;;;;;;3.72;100.00;97526.53;5029917;28;20140;-71
2022/03/15 05:45:12;;;;;;;3.80;1.73;;;;;;;3.76;100.00;97533.13;5029640;28;20087;-71
2022/03/15 05:47:38;;;;;;;5.93;1.85;;;;;;;3.76;100.00;97528.66;5029451;28;20037;-72
2022/03/15 05:50:06;;;;;;;5.32;1.63;;;;;;;3.80;100.00;97526.44;5027707;28;20041;-73
2022/03/15 05:52:31;;;;;;;5.65;2.35;;;;;;;3.83;100.00;97531.41;5029660;28;20041;-73
2022/03/15 05:54:57;;;;;;;4.82;1.65;;;;;;;3.84;100.00;97531.22;5031378;28;20034;-72
2022/03/15 05:57:23;;;;;;;4.55;1.85;;;;;;;3.86;100.00;97520.44;5046214;28;20112;-71
2022/03/15 05:59:49;;;;;;;10.20;2.03;;;;;;;3.85;100.00;97521.44;5030266;28;20045;-71
2022/03/15 06:02:14;;;;;;;6.40;1.92;;;;;;;3.86;100.00;97523.09;5027842;28;20037;-71
2022/03/15 06:04:40;;;;;;;6.43;1.77;;;;;;;3.85;100.00;97527.56;5027865;28;20049;-73
2022/03/15 06:07:06;;;;;;;5.53;2.15;;;;;;;3.85;100.00;97527.56;5029179;28;20387;-73
2022/03/15 06:09:32;;;;;;;7.03;1.77;;;;;;;3.86;100.00;97505.38;5026448;28;20051;-74
2022/03/15 06:11:58;;;;;;;4.68;1.77;;;;;;;3.92;100.00;97506.47;5030105;28;20037;-72
2022/03/15 06:14:23;;;;;;;8.98;1.77;;;;;;;3.94;100.00;97507.13;5027366;28;20428;-73
2022/03/15 06:16:50;;;;;;;6.70;2.53;;;;;;;3.95;100.00;97510.59;5028620;28;20045;-73
2022/03/15 06:19:15;;;;;;;8.18;2.00;;;;;;;3.92;100.00;97517.91;5029646;28;20076;-71
2022/03/15 06:21:41;;;;;;;8.50;2.42;;;;;;;3.89;100.00;97507.69;5030034;28;20600;-75
2022/03/15 06:24:10;;;;;;;7.10;1.58;;;;;;;3.95;100.00;97500.81;5028051;28;20063;-73
2022/03/15 06:26:37;;;;;;;7.22;2.10;;;;;;;4.05;100.00;97501.38;5029491;28;20044;-71
2022/03/15 06:29:03;;;;;;;5.97;2.25;;;;;;;4.06;100.00;97504.84;5027819;28;20415;-72
2022/03/15 06:31:30;;;;;;;8.07;2.15;;;;;;;4.08;100.00;97503.66;5028108;28;20431;-72
2022/03/15 06:33:56;;;;;;;5.60;1.95;;;;;;;4.12;100.00;97509.41;5029043;28;20037;-71
2022/03/15 06:36:21;;;;;;;8.60;2.17;;;;;;;4.06;100.00;97495.09;5028034;28;20357;-71
2022/03/15 06:38:47;;;;;;;6.80;2.15;;;;;;;4.10;100.00;97499.00;5026528;28;20545;-71
2022/03/15 06:41:14;;;;;;;5.72;2.08;;;;;;;4.14;100.00;97505.59;5027647;28;20038;-72
2022/03/15 06:43:40;;;;;;;5.95;2.40;;;;;;;4.21;100.00;97500.38;5028265;28;20041;-72
2022/03/15 06:46:08;;;;;;;6.72;2.15;;;;;;;4.18;100.00;97498.09;5027411;28;20045;-72
2022/03/15 06:48:34;;;;;;;4.93;2.40;;;;;;;4.15;100.00;97493.97;5026290;28;20512;-72
2022/03/15 06:50:59;;;;;;;5.00;2.03;;;;;;;4.13;100.00;97493.34;5028022;28;21077;-72
2022/03/15 06:53:25;;;;;;;5.38;1.83;;;;;;;4.17;100.00;97491.16;5025945;28;20319;-72
2022/03/15 06:55:50;;;;;;;7.03;2.20;;;;;;;4.16;100.00;97490.31;5028995;28;20151;-71
2022/03/15 06:58:17;;;;;;;6.22;2.25;;;;;;;4.18;100.00;97485.66;5027036;28;20045;-73
2022/03/15 07:00:43;;;;;;;13.73;2.55;;;;;;;4.23;100.00;97487.78;5026047;28;20044;-72
2022/03/15 07:03:09;;;;;;;7.22;1.77;;;;;;;4.21;100.00;97492.44;5013650;28;20744;-71
2022/03/15 07:05:35;;;;;;;5.63;1.88;;;;;;;4.22;100.00;97495.91;5011216;28;20053;-74
2022/03/15 07:08:01;;;;;;;5.95;2.50;;;;;;;4.28;100.00;97493.34;5012428;28;20148;-71
2022/03/15 07:10:28;;;;;;;4.60;2.15;;;;;;;4.38;100.00;97482.47;5011188;28;20091;-73
2022/03/15 07:12:54;;;;;;;4.72;2.28;;;;;;;4.52;100.00;97478.16;5016959;28;20048;-71
2022/03/15 07:15:20;;;;;;;6.47;2.50;;;;;;;4.55;100.00;97472.47;5011553;28;20033;-73
2022/03/15 07:17:51;;;;;;;3.88;2.30;;;;;;;4.65;100.00;97467.69;5007900;28;20034;-74
2022/03/15 07:20:17;;;;;;;8.03;2.83;;;;;;;4.79;100.00;97468.66;5010892;28;20041;-71
2022/03/15 07:22:43;;;;;;;3.97;2.08;;;;;;;4.71;100.00;97459.81;5016331;28;20260;-72
2022/03/15 07:25:09;;;;;;;7.20;2.60;;;;;;;4.80;100.00;97457.06;5013928;28;20072;-71
2022/03/15 07:27:34;;;;;;;7.82;2.35;;;;;;;4.84;100.00;97455.69;5013584;28;20042;-71
2022/03/15 07:30:00;;;;;;;5.40;1.98;;;;;;;4.89;100.00;97461.22;5010530;28;20084;-71
2022/03/15 07:32:25;;;;;;;5.75;2.67;;;;;;;5.00;100.00;97455.44;5029860;28;20033;-74
2022/03/15 07:34:51;;;;;;;3.53;1.67;;;;;;;5.00;100.00;97450.13;5030606;28;20029;-71
2022/03/15 07:37:17;;;;;;;5.55;2.40;;;;;;;5.02;100.00;97448.94;5029704;28;20047;-71
2022/03/15 07:39:44;;;;;;;10.75;2.60;;;;;;;5.09;100.00;97448.19;5029125;28;20107;-77
2022/03/15 07:42:10;;;;;;;5.60;1.90;;;;;;;5.12;100.00;97448.59;5031158;28;20067;-71
2022/03/15 07:44:35;;;;;;;5.15;2.08;;;;;;;5.18;100.00;97447.84;5033510;28;20563;-71
2022/03/15 07:47:01;;;;;;;6.32;2.30;;;;;;;5.27;100.00;97444.03;5031497;28;20029;-74
2022/03/15 07:49:26;;;;;;;4.38;2.13;;;;;;;5.41;100.00;97436.19;5029116;28;20559;-71
2022/03/15 07:51:53;;;;;;;5.78;2.42;;;;;;;5.52;100.00;97440.97;5030649;28;20036;-74
2022/03/15 07:54:18;;;;;;;5.57;2.30;;;;;;;5.47;100.00;97443.41;5031614;28;20040;-71
2022/03/15 07:56:45;;;;;;;4.13;2.15;;;;;;;5.54;100.00;97437.13;5031093;28;20043;-74
2022/03/15 07:59:11;;;;;;;7.45;2.45;;;;;;;5.65;100.00;97434.94;5031415;28;20045;-73
2022/03/15 08:01:37;;;;;;;4.20;2.03;;;;;;;5.68;100.00;97422.13;5034786;28;20129;-73
2022/03/15 08:04:03;;;;;;;4.82;2.00;;;;;;;5.84;100.00;97427.13;5030572;28;20048;-74
2022/03/15 08:06:29;;;;;;;4.50;2.15;;;;;;;5.96;100.00;97423.94;5033022;28;20048;-71
2022/03/15 08:08:57;;;;;;;6.72;2.25;;;;;;;5.97;100.00;97420.28;5030450;28;20480;-73
2022/03/15 08:11:26;;;;;;;6.00;2.13;;;;;;;6.02;100.00;97412.53;5033287;28;20033;-71
2022/03/15 08:13:53;;;;;;;4.70;2.03;;;;;;;6.11;100.00;97412.19;5031914;28;20037;-71
2022/03/15 08:16:21;;;;;;;6.43;2.30;;;;;;;6.22;100.00;97409.97;5031239;28;20037;-72
2022/03/15 08:18:46;;;;;;;5.93;2.33;;;;;;;6.25;100.00;97397.13;5030064;28;20477;-74
2022/03/15 08:21:12;;;;;;;4.25;1.40;;;;;;;6.27;100.00;97404.91;5031098;28;20072;-71
2022/03/15 08:23:38;;;;;;;5.32;2.53;;;;;;;6.48;100.00;97404.78;5033587;28;20033;-71
2022/03/15 08:26:03;;;;;;;4.57;1.90;;;;;;;6.46;100.00;97405.97;5033103;28;20349;-74
2022/03/15 08:28:29;;;;;;;4.40;2.30;;;;;;;6.47;100.00;97394.34;5031121;28;20048;-72
2022/03/15 08:30:55;;;;;;;4.38;1.90;;;;;;;6.65;100.00;97394.59;5032429;28;20040;-74
2022/03/15 08:33:22;;;;;;;6.28;2.10;;;;;;;6.64;100.00;97380.47;5030717;28;20037;-74
2022/03/15 08:35:48;;;;;;;6.60;2.42;;;;;;;6.75;100.00;97387.03;5029498;28;20076;-71
2022/03/15 08:38:13;;;;;;;4.38;2.20;;;;;;;6.85;100.00;97376.84;5029363;28;20506;-71
2022/03/15 08:40:39;;;;;;;4.85;2.05;;;;;;;6.88;100.00;97375.63;5031294;28;20493;-72
2022/03/15 08:43:05;;;;;;;4.82;1.98;;;;;;;6.94;100.00;97374.81;5030730;28;20087;-74
2022/03/15 08:45:30;;;;;;;4.22;1.75;;;;;;;6.75;100.00;97381.72;5003719;28;20052;-72
2022/03/15 08:47:56;;;;;;;6.30;2.13;;;;;;;6.66;100.00;97369.63;5030223;28;20069;-72
2022/03/15 08:50:22;;;;;;;4.53;1.83;;;;;;;6.54;100.00;97369.41;5030452;28;20119;-72
2022/03/15 08:52:48;;;;;;;3.80;1.65;;;;;;;6.51;100.00;97368.97;5032178;28;20069;-72
2022/03/15 08:55:14;;;;;;;5.57;1.90;;;;;;;6.64;100.00;97364.53;5028296;28;20115;-71
2022/03/15 08:57:39;;;;;;;3.90;1.65;;;;;;;6.60;100.00;97370.44;5030295;28;20045;-73
2022/03/15 09:00:06;;;;;;;4.68;1.85;;;;;;;6.57;100.00;97373.50;5029405;28;20103;-71
2022/03/15 09:02:32;;;;;;;9.55;1.95;;;;;;;6.60;100.00;97359.78;5034122;28;20041;-71
2022/03/15 09:04:57;;;;;;;6.65;2.05;;;;;;;6.70;100.00;97355.75;5030124;28;20055;-71
2022/03/15 09:07:23;;;;;;;9.13;2.25;;;;;;;6.66;100.00;97351.84;5028455;28;20112;-71
2022/03/15 09:09:51;;;;;;;5.95;2.20;;;;;;;6.62;100.00;97363.09;5031264;28;20098;-71
2022/03/15 09:12:16;;;;;;;5.47;1.88;;;;;;;6.65;100.00;97362.69;5030154;28;20459;-71
2022/03/15 09:14:42;;;;;;;4.60;1.98;;;;;;;6.59;100.00;97356.31;5030879;28;20571;-73
2022/03/15 09:17:07;;;;;;;8.68;1.90;;;;;;;6.64;100.00;97359.19;5027748;28;20063;-71
2022/03/15 09:19:33;;;;;;;4.97;2.03;;;;;;;6.68;100.00;97349.78;5029898;28;20369;-71
2022/03/15 09:22:02;;;;;;;4.22;1.95;;;;;;;6.88;100.00;97349.81;5031184;28;20116;-71
2022/03/15 09:24:29;;;;;;;7.95;1.83;;;;;;;6.82;100.00;97350.63;5029270;28;20048;-71
2022/03/15 09:26:54;;;;;;;3.88;1.60;;;;;;;6.68;100.00;97352.44;5030396;28;20037;-72
2022/03/15 09:29:20;;;;;;;4.65;2.00;;;;;;;6.67;100.00;97353.47;5027851;28;20612;-73
2022/03/15 09:31:45;;;;;;;2.92;1.52;;;;;;;6.62;100.00;97347.13;5028063;28;20136;-71
2022/03/15 09:34:11;;;;;;;3.45;1.48;;;;;;;6.57;100.00;97346.91;5028705;28;20032;-73
2022/03/15 09:36:36;;;;;;;6.32;2.10;;;;;;;6.58;100.00;97345.88;5029456;28;20076;-71
2022/03/15 09:39:07;;;;;;;3.22;1.60;;;;;;;6.57;100.00;97349.56;5029392;28;20460;-71
2022/03/15 09:41:36;;;;;;;5.05;1.98;;;;;;;6.54;100.00;97344.66;5030075;28;20124;-74
2022/03/15 09:44:02;;;;;;;7.07;1.77;;;;;;;6.48;100.00;97348.94;5029107;28;20159;-73
2022/03/15 09:46:29;;;;;;;4.47;1.90;;;;;;;6.57;100.00;97344.25;4999654;28;20057;-71
2022/03/15 09:48:55;;;;;;;5.70;2.40;;;;;;;6.58;100.00;97340.56;5029286;28;20218;-71
2022/03/15 09:51:23;;;;;;;7.55;2.00;;;;;;;6.72;100.00;97342.22;5025198;28;20052;-71
2022/03/15 09:53:55;;;;;;;9.48;2.13;;;;;;;6.70;100.00;97331.00;5029409;28;20115;-71
2022/03/15 09:56:21;;;;;;;3.80;1.88;;;;;;;6.71;100.00;97340.59;5029766;28;20100;-74
2022/03/15 09:58:46;;;;;;;5.38;1.85;;;;;;;6.59;100.00;97340.34;5027640;28;20091;-73
2022/03/15 10:01:16;;;;;;;4.78;2.15;;;;;;;6.62;100.00;97329.34;5028783;28;20375;-71
2022/03/15 10:03:42;;;;;;;7.30;1.60;;;;;;;6.60;100.00;97331.34;5026427;28;20124;-71
2022/03/15 10:06:07;;;;;;;6.10;1.90;;;;;;;6.68;100.00;97333.81;5030915;28;20039;-71
2022/03/15 10:08:34;;;;;;;3.42;2.00;;;;;;;6.67;100.00;97331.38;5028728;28;20398;-71
2022/03/15 10:11:02;;;;;;;4.07;1.80;;;;;;;6.58;100.00;97328.09;5030246;28;20460;-71
2022/03/15 10:13:28;;;;;;;7.90;2.20;;;;;;;6.54;100.00;97326.06;5029745;28;20037;-71
2022/03/15 10:15:59;;;;;;;6.30;2.10;;;;;;;6.49;100.00;97326.66;5030204;28;20059;-74
2022/03/15 10:18:27;;;;;;;6.50;1.80;;;;;;;6.41;100.00;97330.31;5027786;28;20033;-72
2022/03/15 10:20:54;;;;;;;6.82;1.98;;;;;;;6.33;100.00;97327.00;5028659;28;20037;-71
2022/03/15 10:23:24;;;;;;;5.97;1.92;;;;;;;6.37;100.00;97318.41;5031883;28;20041;-73
2022/03/15 10:25:53;;;;;;;5.45;2.00;;;;;;;6.30;100.00;97311.44;5029464;28;20032;-73
2022/03/15 10:28:19;;;;;;;3.38;1.63;;;;;;;6.34;100.00;97323.34;5027809;28;20039;-71
2022/03/15 10:30:47;;;;;;;4.18;1.67;;;;;;;6.26;100.00;97318.19;5026995;28;20512;-71
2022/03/15 10:33:14;;;;;;;8.20;1.92;;;;;;;6.25;100.00;97314.72;5031182;28;20044;-71
2022/03/15 10:35:45;;;;;;;5.45;1.42;;;;;;;6.26;100.00;97308.38;5030510;28;20025;-73
2022/03/15 10:38:12;;;;;;;5.57;1.95;;;;;;;6.38;100.00;97304.13;5027301;28;20038;-72
2022/03/15 10:40:44;;;;;;;5.90;2.08;;;;;;;6.28;100.00;97290.38;5026554;28;20042;-72
2022/03/15 10:43:14;;;;;;;5.13;2.08;;;;;;;6.38;100.00;97297.97;5026824;28;20443;-74
2022/03/15 10:45:44;;;;;;;4.60;2.17;;;;;;;6.26;100.00;97296.94;5002128;28;20510;-71
2022/03/15 10:48:30;;;;;;;7.03;2.22;;;;;;;6.29;100.00;97294.69;5029601;28;20513;-73
2022/03/15 10:51:01;;;;;;;4.25;1.75;;;;;;;6.22;100.00;97295.69;5028763;28;20030;-72
2022/03/15 10:53:36;;;;;;;8.35;2.92;;;;;;;6.20;100.00;97295.88;5030797;28;20506;-71
2022/03/15 10:56:22;;;;;;;6.43;2.88;;;;;;;6.24;100.00;97293.66;5027770;28;20400;-73
2022/03/15 10:58:59;;;;;;;8.68;1.90;;;;;;;6.24;100.00;97301.63;5029466;28;20048;-72
2022/03/15 11:01:27;;;;;;;4.82;2.20;;;;;;;6.43;100.00;97298.19;5025953;28;20136;-71
2022/03/15 11:04:20;;;;;;;5.07;2.42;;;;;;;6.32;100.00;97293.47;5030030;28;20037;-73
2022/03/15 11:06:50;;;;;;;6.25;2.40;;;;;;;6.46;100.00;97294.31;5026604;28;20053;-71
2022/03/15 11:09:32;;;;;;;4.60;2.10;;;;;;;6.41;100.00;97287.75;5031298;28;20510;-71
2022/03/15 11:12:08;;;;;;;4.25;2.22;;;;;;;6.43;100.00;97280.41;5026994;28;20361;-72
2022/03/15 11:14:47;;;;;;;6.25;2.58;;;;;;;6.50;100.00;97268.97;5030460;28;20079;-72
2022/03/15 11:17:15;;;;;;;4.00;2.13;;;;;;;6.46;100.00;97265.06;5026430;28;20524;-71
2022/03/15 11:19:46;;;;;;;9.25;2.67;;;;;;;6.58;100.00;97258.13;5026931;28;20491;-72
2022/03/15 11:22:13;;;;;;;6.70;2.80;;;;;;;6.53;100.00;97257.91;5026262;28;20045;-71
2022/03/15 11:24:45;;;;;;;5.47;2.50;;;;;;;6.51;100.00;97246.66;5027380;28;20439;-74
2022/03/15 11:27:13;;;;;;;;;;;;;;;6.48;100.00;97247.09;5029606;28;20041;-73
2022/03/15 11:29:40;;;;;;;5.32;2.30;;;;;;;6.41;100.00;97247.06;4329417;28;10000577;-74
2022/03/15 11:32:06;;;;;;;6.97;2.78;;;;;;;6.33;100.00;97232.13;5028339;28;20160;-71